Antonios — SY8410 — position and weather

sailwx.info

Track history (hours):
 
Tides and Currents Weather Stations Pressure Air Temp Water Temp Dewpoint Dewpoint Depression Visibility Wind Speed Wind Dir Waves Ship Positions

Antonios

Last reported at 2014-Oct-23 02:33 UTC. Time now 2014-Nov-01 05:38 UTC.
Position N 37°04' E 026°25'.
Warning: this ship's position is 9 days out of date.

Length 57 m; draft 2.9 m.

Type: Tanker. MMSI: 239191300.

Date/timePositionNaut miles runAvg speedWind from/ knotsBaromVisibWave heightAir tempDewpointWater temp
2014-Oct-23 02:33N 37°04' E 026°25'8 8.2
2014-Oct-23 01:33N 37°07' E 026°15'8 7.9
2014-Oct-23 00:33N 37°08' E 026°06'8 7.8
2014-Oct-22 23:33N 37°09' E 025°56'9 8.6
2014-Oct-22 22:33N 37°10' E 025°45'9 8.8
2014-Oct-22 21:33N 37°13' E 025°34'10 9.6
2014-Oct-22 20:33N 37°15' E 025°23'9 8.8
2014-Oct-22 19:33N 37°17' E 025°12'9 8.9
2014-Oct-22 18:32N 37°19' E 025°01'9 9.3
2014-Oct-22 17:33N 37°20' E 024°49'10 9.4
2014-Oct-22 16:33N 37°24' E 024°39'9 9.4
2014-Oct-22 15:33N 37°29' E 024°28'8 7.8
2014-Oct-22 14:33N 37°29' E 024°18'9 8.7
2014-Oct-22 13:33N 37°32' E 024°08'21 9.3
2014-Oct-22 11:19N 37°40' E 023°44'7 9.3
2014-Oct-22 10:33N 37°45' E 023°39'9 8.9
2014-Oct-22 09:33N 37°50' E 023°29'10 9.8
2014-Oct-22 08:33N 37°52' E 023°17'10 9.4
2014-Oct-22 07:32N 37°55' E 023°05'0 0.1
2014-Oct-22 06:33N 37°55' E 023°05'0 0.0
2014-Oct-22 05:33N 37°55' E 023°05'0 0.0
2014-Oct-22 04:26N 37°55' E 023°05'0 0.0
2014-Oct-22 03:33N 37°55' E 023°05'0 0.0
2014-Oct-22 02:33N 37°55' E 023°05'0 0.0
2014-Oct-22 01:33N 37°55' E 023°05'1 0.6
2014-Oct-22 00:33N 37°55' E 023°06'0 0.0
2014-Oct-21 23:24N 37°55' E 023°06'0 0.0
2014-Oct-21 22:27N 37°55' E 023°06'0 0.0
2014-Oct-21 21:33N 37°55' E 023°06'0 0.0
2014-Oct-21 20:33N 37°55' E 023°06'0 0.0
2014-Oct-21 19:33N 37°55' E 023°06'0 0.1
2014-Oct-21 18:33N 37°55' E 023°06'7 6.6
2014-Oct-21 17:33N 37°53' E 023°14'1110.9
2014-Oct-21 16:33N 37°51' E 023°28'10 9.8
2014-Oct-21 15:33N 37°49' E 023°40'1110.5
2014-Oct-21 14:33N 37°40' E 023°47'1410.4
2014-Oct-21 13:12N 37°35' E 024°03'810.3
2014-Oct-21 12:28N 37°32' E 024°12'1010.6
2014-Oct-21 11:33N 37°30' E 024°24'1010.4
2014-Oct-21 10:33N 37°26' E 024°36'1010.2
2014-Oct-21 09:33N 37°22' E 024°48'1110.3
2014-Oct-21 08:30N 37°19' E 025°01'1010.8
2014-Oct-21 07:33N 37°17' E 025°14'1111.1
2014-Oct-21 06:33N 37°15' E 025°27'10 9.9
2014-Oct-21 05:33N 37°10' E 025°38'9 8.9
2014-Oct-21 04:33N 37°05' E 025°47'9 8.7
2014-Oct-21 03:33N 37°02' E 025°58'8 7.6
2014-Oct-21 02:33N 36°59' E 026°07'8 7.9
2014-Oct-21 01:33N 36°57' E 026°16'9 8.9
2014-Oct-21 00:33N 36°56' E 026°27'11 8.8
2014-Oct-20 23:20N 36°55' E 026°41'  
2014-Oct-16 00:31N 36°55' E 026°55'1010.1
2014-Oct-15 23:33N 36°59' E 026°44'1010.5
2014-Oct-15 22:33N 37°01' E 026°31'1110.9
2014-Oct-15 21:33N 37°05' E 026°18'1010.5
2014-Oct-15 20:33N 37°08' E 026°06'1111.2
2014-Oct-15 19:33N 37°10' E 025°52'1110.7
2014-Oct-15 18:33N 37°12' E 025°39'1010.4
2014-Oct-15 17:33N 37°15' E 025°26'1010.1
2014-Oct-15 16:33N 37°17' E 025°14'1010.0
2014-Oct-15 15:33N 37°19' E 025°01'1010.3
2014-Oct-15 14:33N 37°22' E 024°49'1110.8
2014-Oct-15 13:33N 37°26' E 024°36'1110.7
2014-Oct-15 12:33N 37°30' E 024°24'1010.2
2014-Oct-15 11:33N 37°31' E 024°11'2110.3
2014-Oct-15 09:30N 37°39' E 023°46'9 9.8
2014-Oct-15 08:33N 37°45' E 023°38'9 9.5
2014-Oct-15 07:33N 37°50' E 023°28'1310.2
2014-Oct-15 06:17N 37°53' E 023°12'6 7.6
2014-Oct-15 05:33N 37°55' E 023°05'0 0.0
2014-Oct-15 03:31N 37°55' E 023°05'0 0.0
2014-Oct-15 02:33N 37°55' E 023°05'0 0.0
2014-Oct-15 01:12N 37°55' E 023°05'1 0.3
2014-Oct-14 21:32N 37°55' E 023°04'0 0.2
2014-Oct-14 20:31N 37°54' E 023°04'0 0.0
2014-Oct-14 19:28N 37°54' E 023°04'0 0.0
2014-Oct-14 18:20N 37°54' E 023°04'0 0.0
2014-Oct-14 17:32N 37°54' E 023°04'0 0.0
2014-Oct-14 16:32N 37°54' E 023°04'0 0.0
2014-Oct-14 15:24N 37°54' E 023°04'0 0.0
2014-Oct-14 14:28N 37°54' E 023°04'0 0.0
2014-Oct-14 05:27N 37°54' E 023°04'0 0.0
2014-Oct-14 04:31N 37°54' E 023°04'0 0.0
2014-Oct-14 03:31N 37°54' E 023°04'0 0.0
2014-Oct-14 02:32N 37°54' E 023°04'0 0.0
2014-Oct-14 01:12N 37°54' E 023°04'0 0.0
2014-Oct-14 00:13N 37°54' E 023°04'0 0.0
2014-Oct-13 23:29N 37°54' E 023°04'0 0.0
2014-Oct-13 22:27N 37°54' E 023°04'0 0.0
2014-Oct-13 21:29N 37°54' E 023°04'0 0.0
2014-Oct-13 18:32N 37°54' E 023°04'2 1.8
2014-Oct-13 17:32N 37°53' E 023°06'2 0.2
2014-Oct-13 06:19N 37°54' E 023°04'0 0.0
2014-Oct-13 05:28N 37°54' E 023°04'0 0.0
2014-Oct-13 04:29N 37°54' E 023°04'0 0.0
2014-Oct-13 03:33N 37°54' E 023°04'0 0.0
2014-Oct-13 02:33N 37°54' E 023°04'  
Track history (hours):
 
Tides and Currents Weather Stations Pressure Air Temp Water Temp Dewpoint Dewpoint Depression Visibility Wind Speed Wind Dir Waves Ship Positions

Antonios

Last reported at 2014-Oct-23 02:33 UTC. Time now 2014-Nov-01 05:38 UTC.
Position N 37°04' E 026°25'.
Warning: this ship's position is 9 days out of date.

Length 57 m; draft 2.9 m.

Type: Tanker. MMSI: 239191300.

Date/timePositionNaut miles runAvg speedWind from/ knotsBaromVisibWave heightAir tempDewpointWater temp
2014-Oct-23 02:33N 37°04' E 026°25'8 8.2
2014-Oct-23 01:33N 37°07' E 026°15'8 7.9
2014-Oct-23 00:33N 37°08' E 026°06'8 7.8
2014-Oct-22 23:33N 37°09' E 025°56'9 8.6
2014-Oct-22 22:33N 37°10' E 025°45'9 8.8
2014-Oct-22 21:33N 37°13' E 025°34'10 9.6
2014-Oct-22 20:33N 37°15' E 025°23'9 8.8
2014-Oct-22 19:33N 37°17' E 025°12'9 8.9
2014-Oct-22 18:32N 37°19' E 025°01'9 9.3
2014-Oct-22 17:33N 37°20' E 024°49'10 9.4
2014-Oct-22 16:33N 37°24' E 024°39'9 9.4
2014-Oct-22 15:33N 37°29' E 024°28'8 7.8
2014-Oct-22 14:33N 37°29' E 024°18'9 8.7
2014-Oct-22 13:33N 37°32' E 024°08'21 9.3
2014-Oct-22 11:19N 37°40' E 023°44'7 9.3
2014-Oct-22 10:33N 37°45' E 023°39'9 8.9
2014-Oct-22 09:33N 37°50' E 023°29'10 9.8
2014-Oct-22 08:33N 37°52' E 023°17'10 9.4
2014-Oct-22 07:32N 37°55' E 023°05'0 0.1
2014-Oct-22 06:33N 37°55' E 023°05'0 0.0
2014-Oct-22 05:33N 37°55' E 023°05'0 0.0
2014-Oct-22 04:26N 37°55' E 023°05'0 0.0
2014-Oct-22 03:33N 37°55' E 023°05'0 0.0
2014-Oct-22 02:33N 37°55' E 023°05'0 0.0
2014-Oct-22 01:33N 37°55' E 023°05'1 0.6
2014-Oct-22 00:33N 37°55' E 023°06'0 0.0
2014-Oct-21 23:24N 37°55' E 023°06'0 0.0
2014-Oct-21 22:27N 37°55' E 023°06'0 0.0
2014-Oct-21 21:33N 37°55' E 023°06'0 0.0
2014-Oct-21 20:33N 37°55' E 023°06'0 0.0
2014-Oct-21 19:33N 37°55' E 023°06'0 0.1
2014-Oct-21 18:33N 37°55' E 023°06'7 6.6
2014-Oct-21 17:33N 37°53' E 023°14'1110.9
2014-Oct-21 16:33N 37°51' E 023°28'10 9.8
2014-Oct-21 15:33N 37°49' E 023°40'1110.5
2014-Oct-21 14:33N 37°40' E 023°47'1410.4
2014-Oct-21 13:12N 37°35' E 024°03'810.3
2014-Oct-21 12:28N 37°32' E 024°12'1010.6
2014-Oct-21 11:33N 37°30' E 024°24'1010.4
2014-Oct-21 10:33N 37°26' E 024°36'1010.2
2014-Oct-21 09:33N 37°22' E 024°48'1110.3
2014-Oct-21 08:30N 37°19' E 025°01'1010.8
2014-Oct-21 07:33N 37°17' E 025°14'1111.1
2014-Oct-21 06:33N 37°15' E 025°27'10 9.9
2014-Oct-21 05:33N 37°10' E 025°38'9 8.9
2014-Oct-21 04:33N 37°05' E 025°47'9 8.7
2014-Oct-21 03:33N 37°02' E 025°58'8 7.6
2014-Oct-21 02:33N 36°59' E 026°07'8 7.9
2014-Oct-21 01:33N 36°57' E 026°16'9 8.9
2014-Oct-21 00:33N 36°56' E 026°27'11 8.8
2014-Oct-20 23:20N 36°55' E 026°41'  
2014-Oct-16 00:31N 36°55' E 026°55'1010.1
2014-Oct-15 23:33N 36°59' E 026°44'1010.5
2014-Oct-15 22:33N 37°01' E 026°31'1110.9
2014-Oct-15 21:33N 37°05' E 026°18'1010.5
2014-Oct-15 20:33N 37°08' E 026°06'1111.2
2014-Oct-15 19:33N 37°10' E 025°52'1110.7
2014-Oct-15 18:33N 37°12' E 025°39'1010.4
2014-Oct-15 17:33N 37°15' E 025°26'1010.1
2014-Oct-15 16:33N 37°17' E 025°14'1010.0
2014-Oct-15 15:33N 37°19' E 025°01'1010.3
2014-Oct-15 14:33N 37°22' E 024°49'1110.8
2014-Oct-15 13:33N 37°26' E 024°36'1110.7
2014-Oct-15 12:33N 37°30' E 024°24'1010.2
2014-Oct-15 11:33N 37°31' E 024°11'2110.3
2014-Oct-15 09:30N 37°39' E 023°46'9 9.8
2014-Oct-15 08:33N 37°45' E 023°38'9 9.5
2014-Oct-15 07:33N 37°50' E 023°28'1310.2
2014-Oct-15 06:17N 37°53' E 023°12'6 7.6
2014-Oct-15 05:33N 37°55' E 023°05'0 0.0
2014-Oct-15 03:31N 37°55' E 023°05'0 0.0
2014-Oct-15 02:33N 37°55' E 023°05'0 0.0
2014-Oct-15 01:12N 37°55' E 023°05'1 0.3
2014-Oct-14 21:32N 37°55' E 023°04'0 0.2
2014-Oct-14 20:31N 37°54' E 023°04'0 0.0
2014-Oct-14 19:28N 37°54' E 023°04'0 0.0
2014-Oct-14 18:20N 37°54' E 023°04'0 0.0
2014-Oct-14 17:32N 37°54' E 023°04'0 0.0
2014-Oct-14 16:32N 37°54' E 023°04'0 0.0
2014-Oct-14 15:24N 37°54' E 023°04'0 0.0
2014-Oct-14 14:28N 37°54' E 023°04'0 0.0
2014-Oct-14 05:27N 37°54' E 023°04'0 0.0
2014-Oct-14 04:31N 37°54' E 023°04'0 0.0
2014-Oct-14 03:31N 37°54' E 023°04'0 0.0
2014-Oct-14 02:32N 37°54' E 023°04'0 0.0
2014-Oct-14 01:12N 37°54' E 023°04'0 0.0
2014-Oct-14 00:13N 37°54' E 023°04'0 0.0
2014-Oct-13 23:29N 37°54' E 023°04'0 0.0
2014-Oct-13 22:27N 37°54' E 023°04'0 0.0
2014-Oct-13 21:29N 37°54' E 023°04'0 0.0
2014-Oct-13 18:32N 37°54' E 023°04'2 1.8
2014-Oct-13 17:32N 37°53' E 023°06'2 0.2
2014-Oct-13 06:19N 37°54' E 023°04'0 0.0
2014-Oct-13 05:28N 37°54' E 023°04'0 0.0
2014-Oct-13 04:29N 37°54' E 023°04'0 0.0
2014-Oct-13 03:33N 37°54' E 023°04'0 0.0
2014-Oct-13 02:33N 37°54' E 023°04'  

Dump ship's entire track history